Time;durP1;ratioP1;P1;durP2;ratioP2;P2;SDS_P1;SDS_P2;PMS_P1;PMS_P2;Temp;Humidity;BMP_temperature;BMP_pressure;BME280_temperature;BME280_humidity;BME280_pressure;Samples;Min_cycle;Max_cycle;Signal;HPM_P1;HPM_P2
2023/09/01 00:02:03;;;;;;;5.80;3.50;;;15.50;99.90;;;;;;5086124;28;20487;-70
2023/09/01 00:04:49;;;;;;;5.07;3.70;;;15.50;99.90;;;;;;5084183;28;20465;-70
2023/09/01 00:07:35;;;;;;;5.50;3.33;;;15.50;99.90;;;;;;5077282;28;20510;-70
2023/09/01 00:10:22;;;;;;;5.50;3.40;;;15.50;99.90;;;;;;5085513;28;20481;-70
2023/09/01 00:13:07;;;;;;;4.80;3.10;;;15.60;99.90;;;;;;5080964;28;20788;-71
2023/09/01 00:15:53;;;;;;;6.43;2.83;;;15.60;99.90;;;;;;5074007;28;20423;-70
2023/09/01 00:18:39;;;;;;;6.83;2.90;;;15.60;99.90;;;;;;5073601;28;20822;-70
2023/09/01 00:21:24;;;;;;;8.70;3.40;;;15.60;99.90;;;;;;5076995;28;20802;-70
2023/09/01 00:24:11;;;;;;;4.23;2.67;;;15.60;99.90;;;;;;5074005;28;20611;-70
2023/09/01 00:26:57;;;;;;;7.30;3.20;;;15.60;99.90;;;;;;5074087;28;20450;-70
2023/09/01 00:29:43;;;;;;;4.73;2.93;;;15.60;99.90;;;;;;5074976;28;20477;-70
2023/09/01 00:32:29;;;;;;;4.93;3.30;;;15.70;99.90;;;;;;5077693;28;20495;-70
2023/09/01 00:35:14;;;;;;;5.17;3.17;;;15.70;99.90;;;;;;5071439;28;20399;-70
2023/09/01 00:38:00;;;;;;;4.27;2.97;;;15.80;99.90;;;;;;5077689;28;20528;-70
2023/09/01 00:40:48;;;;;;;5.47;2.97;;;15.80;99.90;;;;;;5072480;28;20436;-71
2023/09/01 00:43:35;;;;;;;8.40;3.23;;;15.80;99.90;;;;;;5070686;28;20440;-70
2023/09/01 00:46:20;;;;;;;6.47;2.60;;;15.70;99.90;;;;;;5079032;28;20432;-71
2023/09/01 00:49:06;;;;;;;4.50;2.97;;;15.70;99.90;;;;;;5072399;28;20467;-70
2023/09/01 00:51:52;;;;;;;3.30;2.67;;;15.60;99.90;;;;;;5075863;28;20866;-70
2023/09/01 00:54:39;;;;;;;4.73;3.40;;;15.60;99.90;;;;;;5073950;28;20470;-70
2023/09/01 00:57:24;;;;;;;6.00;2.80;;;15.60;99.90;;;;;;5075168;28;20416;-70
2023/09/01 01:00:12;;;;;;;3.80;2.60;;;15.60;99.90;;;;;;5070406;28;20474;-70
2023/09/01 01:02:59;;;;;;;6.00;2.77;;;15.70;99.90;;;;;;5075452;28;20500;-70
2023/09/01 01:05:57;;;;;;;6.37;2.63;;;15.80;99.90;;;;;;5075978;28;20658;-71
2023/09/01 01:08:56;;;;;;;9.10;3.27;;;15.80;99.90;;;;;;5079606;28;20445;-71
2023/09/01 01:11:47;;;;;;;5.70;2.77;;;15.80;99.90;;;;;;5074176;28;20527;-71
2023/09/01 01:14:41;;;;;;;6.83;2.90;;;15.70;99.90;;;;;;5074799;28;20408;-70
2023/09/01 01:17:29;;;;;;;4.40;2.40;;;15.60;99.90;;;;;;5078516;28;20840;-70
2023/09/01 01:20:29;;;;;;;4.27;2.60;;;15.70;99.90;;;;;;5078663;28;20462;-71
2023/09/01 01:23:17;;;;;;;2.83;2.33;;;15.70;99.90;;;;;;5082697;28;20512;-71
2023/09/01 01:26:04;;;;;;;2.70;2.27;;;15.60;99.90;;;;;;5077566;28;20489;-70
2023/09/01 01:28:50;;;;;;;4.03;3.00;;;15.60;99.90;;;;;;5080087;28;20429;-70
2023/09/01 01:31:35;;;;;;;6.63;3.37;;;15.60;99.90;;;;;;5078846;28;21005;-70
2023/09/01 01:34:30;;;;;;;3.90;2.80;;;15.70;99.90;;;;;;5081807;28;20408;-70
2023/09/01 01:37:20;;;;;;;3.50;2.43;;;15.70;99.90;;;;;;5081980;28;20445;-71
2023/09/01 01:40:09;;;;;;;6.97;2.67;;;15.80;99.90;;;;;;5075032;28;20495;-71
2023/09/01 01:42:56;;;;;;;4.83;2.47;;;15.80;99.90;;;;;;5081826;28;20535;-70
2023/09/01 01:45:44;;;;;;;4.23;2.80;;;15.80;99.90;;;;;;5077487;28;20469;-70
2023/09/01 01:48:30;;;;;;;4.80;2.50;;;15.80;99.90;;;;;;5084456;28;20416;-70
2023/09/01 01:51:15;;;;;;;3.47;2.57;;;15.80;99.90;;;;;;5077670;28;20512;-70
2023/09/01 01:54:01;;;;;;;3.77;2.07;;;15.80;99.90;;;;;;5083987;28;20433;-70
2023/09/01 01:56:49;;;;;;;5.33;2.63;;;15.80;99.90;;;;;;5081171;28;20499;-70
2023/09/01 01:59:34;;;;;;;3.33;2.50;;;15.80;99.90;;;;;;5077669;28;20434;-71
2023/09/01 02:02:20;;;;;;;4.57;2.23;;;15.80;99.90;;;;;;5082291;28;20441;-70
2023/09/01 02:05:07;;;;;;;6.80;2.73;;;15.80;99.90;;;;;;5084901;28;20487;-70
2023/09/01 02:07:53;;;;;;;2.60;2.07;;;15.80;99.90;;;;;;5085042;28;20425;-70
2023/09/01 02:10:39;;;;;;;5.40;2.17;;;15.70;99.90;;;;;;5080629;28;20860;-70
2023/09/01 02:13:26;;;;;;;2.63;2.07;;;15.70;99.90;;;;;;5081160;28;20767;-70
2023/09/01 02:16:11;;;;;;;2.50;1.83;;;15.80;99.90;;;;;;5082706;28;20653;-70
2023/09/01 02:18:57;;;;;;;2.33;1.73;;;15.70;99.90;;;;;;5086635;28;20804;-70
2023/09/01 02:21:45;;;;;;;2.50;1.80;;;15.70;99.90;;;;;;5081939;28;20437;-71
2023/09/01 02:24:30;;;;;;;2.73;1.60;;;15.70;99.90;;;;;;5084057;28;20448;-70
2023/09/01 02:27:16;;;;;;;2.20;1.47;;;15.80;99.90;;;;;;5078123;28;20491;-70
2023/09/01 02:30:04;;;;;;;2.23;1.70;;;15.80;99.90;;;;;;5084985;28;20473;-70
2023/09/01 02:32:50;;;;;;;2.20;1.60;;;15.80;99.90;;;;;;5086171;28;20500;-70
2023/09/01 02:35:41;;;;;;;4.50;1.93;;;15.80;99.90;;;;;;5084539;28;20438;-70
2023/09/01 02:38:27;;;;;;;6.40;1.60;;;15.80;99.90;;;;;;5081047;28;20833;-70
2023/09/01 02:41:12;;;;;;;6.03;1.83;;;15.80;99.90;;;;;;5086926;28;20458;-70
2023/09/01 02:43:58;;;;;;;3.37;2.10;;;15.90;99.90;;;;;;5085456;28;20801;-70
2023/09/01 02:46:45;;;;;;;4.50;2.00;;;15.80;99.90;;;;;;5085081;28;20462;-70
2023/09/01 02:49:31;;;;;;;1.90;1.50;;;15.90;99.90;;;;;;5083914;28;20425;-70
2023/09/01 02:52:16;;;;;;;2.50;1.70;;;15.80;99.90;;;;;;5082756;28;20422;-71
2023/09/01 02:55:03;;;;;;;3.10;2.10;;;15.80;99.90;;;;;;5082043;28;20424;-70
2023/09/01 02:57:49;;;;;;;3.73;1.93;;;15.80;99.90;;;;;;5085652;28;20869;-70
2023/09/01 03:00:34;;;;;;;2.53;1.87;;;15.90;99.90;;;;;;5080189;28;20454;-70
2023/09/01 03:03:22;;;;;;;4.70;1.83;;;15.90;99.90;;;;;;5086368;28;20572;-71
2023/09/01 03:06:09;;;;;;;4.33;2.20;;;15.90;99.90;;;;;;5083333;28;20855;-70
2023/09/01 03:08:54;;;;;;;3.13;2.10;;;15.90;99.90;;;;;;5085654;28;20454;-70
2023/09/01 03:11:40;;;;;;;9.80;2.40;;;15.90;99.90;;;;;;5078358;28;20519;-70
2023/09/01 03:14:26;;;;;;;2.87;2.17;;;15.90;99.90;;;;;;5079895;28;20416;-70
2023/09/01 03:17:11;;;;;;;3.00;1.83;;;16.00;99.90;;;;;;5084696;28;21063;-70
2023/09/01 03:19:59;;;;;;;3.97;2.40;;;16.00;99.90;;;;;;5085857;28;20945;-70
2023/09/01 03:22:44;;;;;;;3.93;2.40;;;16.00;99.90;;;;;;5085912;28;20519;-70
2023/09/01 03:25:30;;;;;;;3.40;2.87;;;16.00;99.90;;;;;;5081582;28;20477;-70
2023/09/01 03:28:16;;;;;;;3.13;2.37;;;16.00;99.90;;;;;;5084016;28;20461;-71
2023/09/01 03:31:02;;;;;;;3.37;2.63;;;16.00;99.90;;;;;;5083900;28;20470;-70
2023/09/01 03:33:47;;;;;;;6.13;3.43;;;16.00;99.90;;;;;;5078862;28;20553;-70
2023/09/01 03:36:34;;;;;;;5.13;3.33;;;15.90;99.90;;;;;;5069158;28;20535;-70
2023/09/01 03:39:20;;;;;;;4.50;3.47;;;15.90;99.90;;;;;;5072294;28;21020;-70
2023/09/01 03:42:06;;;;;;;9.67;3.10;;;16.00;99.90;;;;;;5082276;28;20541;-70
2023/09/01 03:44:52;;;;;;;7.40;3.50;;;16.00;99.90;;;;;;5077745;28;20674;-70
2023/09/01 03:47:38;;;;;;;3.33;3.03;;;16.10;99.90;;;;;;5074382;28;21276;-70
2023/09/01 03:50:24;;;;;;;6.53;4.00;;;16.10;99.90;;;;;;5076223;28;20449;-70
2023/09/01 03:53:10;;;;;;;6.23;4.00;;;16.10;99.90;;;;;;5073122;28;20551;-70
2023/09/01 03:55:56;;;;;;;6.83;4.00;;;16.10;99.90;;;;;;5078929;28;20478;-71
2023/09/01 03:58:42;;;;;;;10.93;5.07;;;16.10;99.90;;;;;;5077429;28;20440;-70
2023/09/01 04:01:28;;;;;;;7.80;5.43;;;16.00;99.90;;;;;;5077176;28;20486;-71
2023/09/01 04:04:14;;;;;;;10.43;5.20;;;16.00;99.90;;;;;;5080222;28;20547;-70
2023/09/01 04:07:00;;;;;;;10.37;5.50;;;16.00;99.90;;;;;;5079123;28;20421;-70
2023/09/01 04:09:46;;;;;;;9.77;5.57;;;16.00;99.90;;;;;;5079564;28;20433;-71
2023/09/01 04:12:33;;;;;;;9.43;5.87;;;16.00;99.90;;;;;;5086436;28;20456;-70
2023/09/01 04:15:18;;;;;;;11.63;5.90;;;16.00;99.90;;;;;;5080180;28;20742;-70
2023/09/01 04:18:04;;;;;;;11.83;5.70;;;16.00;99.90;;;;;;5079380;28;20521;-70
2023/09/01 04:20:51;;;;;;;7.60;5.93;;;16.00;99.90;;;;;;5081099;28;20531;-71
2023/09/01 04:23:39;;;;;;;7.80;5.40;;;16.10;99.90;;;;;;5085891;28;21103;-70
2023/09/01 04:26:26;;;;;;;10.70;7.30;;;16.10;99.90;;;;;;5077725;28;20478;-70
2023/09/01 04:29:13;;;;;;;13.50;6.20;;;16.10;99.90;;;;;;5085265;28;20438;-70
2023/09/01 04:31:59;;;;;;;6.57;5.67;;;16.20;99.90;;;;;;5083794;28;20448;-70
2023/09/01 04:34:45;;;;;;;10.77;5.40;;;16.20;99.90;;;;;;5081186;28;20437;-71
2023/09/01 04:37:31;;;;;;;8.97;5.47;;;16.20;99.90;;;;;;5074594;28;20487;-70
2023/09/01 04:40:16;;;;;;;9.33;6.03;;;16.20;99.90;;;;;;5081642;28;20988;-71
2023/09/01 04:43:03;;;;;;;10.63;5.03;;;16.20;99.90;;;;;;5078553;28;20851;-70
2023/09/01 04:45:49;;;;;;;6.30;4.97;;;16.30;99.90;;;;;;5080226;28;20652;-70
2023/09/01 04:48:35;;;;;;;5.10;4.60;;;16.30;99.90;;;;;;5083199;28;20408;-70
2023/09/01 04:51:21;;;;;;;7.13;5.30;;;16.30;99.90;;;;;;5079844;28;20466;-70
2023/09/01 04:54:08;;;;;;;8.73;5.97;;;16.30;99.90;;;;;;5078489;28;20982;-70
2023/09/01 04:56:54;;;;;;;7.10;5.87;;;16.30;99.90;;;;;;5078403;28;20446;-70
2023/09/01 04:59:44;;;;;;;7.50;6.20;;;16.40;99.90;;;;;;5078007;28;20424;-70
2023/09/01 05:02:30;;;;;;;9.13;5.10;;;16.30;99.90;;;;;;5074460;28;20509;-70
2023/09/01 05:05:16;;;;;;;9.73;5.37;;;16.40;99.90;;;;;;5080800;28;20477;-70
2023/09/01 05:08:01;;;;;;;8.83;5.20;;;16.40;99.90;;;;;;5078297;28;21046;-70
2023/09/01 05:10:47;;;;;;;6.37;5.30;;;16.50;99.90;;;;;;5080530;28;20479;-70
2023/09/01 05:13:33;;;;;;;9.90;4.80;;;16.50;99.90;;;;;;5081010;28;20927;-71
2023/09/01 05:16:20;;;;;;;8.27;5.00;;;16.50;99.90;;;;;;5078017;28;20442;-70
2023/09/01 05:19:05;;;;;;;6.03;4.87;;;16.50;99.90;;;;;;5084722;28;20511;-70
2023/09/01 05:21:51;;;;;;;7.13;5.00;;;16.50;99.90;;;;;;5083539;28;20432;-71
2023/09/01 05:24:39;;;;;;;8.80;4.77;;;16.50;99.90;;;;;;5073293;28;20805;-70
2023/09/01 05:27:24;;;;;;;9.10;5.47;;;16.50;99.90;;;;;;5077469;28;20535;-70
2023/09/01 05:30:12;;;;;;;8.97;5.10;;;16.50;99.90;;;;;;5078266;28;20495;-70
2023/09/01 05:32:59;;;;;;;6.10;4.90;;;16.50;99.90;;;;;;5084191;28;20428;-70
2023/09/01 05:35:44;;;;;;;13.40;4.53;;;16.60;99.90;;;;;;5080736;28;20879;-70
2023/09/01 05:38:30;;;;;;;6.70;4.20;;;16.50;99.90;;;;;;5081808;28;20500;-71
2023/09/01 05:41:16;;;;;;;9.97;4.63;;;16.50;99.90;;;;;;5087082;28;20512;-71
2023/09/01 05:44:02;;;;;;;9.10;4.20;;;16.60;99.90;;;;;;5086953;28;20465;-70
2023/09/01 05:46:47;;;;;;;5.30;4.50;;;16.50;99.90;;;;;;5086683;28;20608;-70
2023/09/01 05:49:35;;;;;;;6.43;3.87;;;16.60;99.90;;;;;;5084691;28;20460;-70
2023/09/01 05:52:21;;;;;;;9.60;4.37;;;16.60;99.90;;;;;;5084581;28;20465;-70
2023/09/01 05:55:07;;;;;;;8.37;4.70;;;16.70;99.90;;;;;;5085930;28;20463;-71
2023/09/01 05:57:52;;;;;;;15.43;4.73;;;16.70;99.90;;;;;;5081289;28;20507;-70
2023/09/01 06:00:38;;;;;;;7.93;4.37;;;16.70;99.90;;;;;;5082414;28;21018;-71
2023/09/01 06:03:23;;;;;;;6.07;3.97;;;16.70;99.90;;;;;;5080606;28;20439;-70
2023/09/01 06:06:11;;;;;;;8.70;4.00;;;16.60;99.90;;;;;;5082594;28;20465;-71
2023/09/01 06:08:56;;;;;;;7.00;3.80;;;16.70;99.90;;;;;;5085096;28;20548;-70
2023/09/01 06:11:42;;;;;;;8.83;4.60;;;16.70;99.90;;;;;;5081400;28;20464;-70
2023/09/01 06:14:28;;;;;;;10.30;3.63;;;16.70;99.90;;;;;;5083815;28;20474;-71
2023/09/01 06:17:13;;;;;;;4.63;3.40;;;16.80;99.90;;;;;;5081136;28;20439;-71
2023/09/01 06:19:59;;;;;;;5.13;4.00;;;16.70;99.90;;;;;;5083621;28;20508;-71
2023/09/01 06:22:46;;;;;;;4.10;3.70;;;16.80;99.90;;;;;;5082711;28;20648;-70
2023/09/01 06:25:31;;;;;;;5.20;4.50;;;16.80;99.90;;;;;;5087376;28;20448;-71
2023/09/01 06:28:17;;;;;;;4.33;3.50;;;16.80;99.90;;;;;;5082637;28;20537;-70
2023/09/01 06:31:03;;;;;;;16.10;4.17;;;16.90;99.90;;;;;;5082186;28;21063;-70
2023/09/01 06:33:48;;;;;;;7.13;4.03;;;16.90;99.90;;;;;;5085232;28;20839;-70
2023/09/01 06:36:34;;;;;;;8.00;4.70;;;16.90;99.90;;;;;;5083321;28;20942;-70
2023/09/01 06:39:21;;;;;;;5.93;3.93;;;16.90;99.90;;;;;;5080281;28;20442;-70
2023/09/01 06:42:07;;;;;;;4.73;4.10;;;16.90;99.90;;;;;;5080493;28;20966;-70
2023/09/01 06:44:53;;;;;;;4.67;3.47;;;16.90;99.90;;;;;;5085471;28;20443;-71
2023/09/01 06:47:38;;;;;;;8.57;3.73;;;16.90;99.90;;;;;;5083361;28;20438;-70
2023/09/01 06:50:24;;;;;;;8.97;4.00;;;16.90;99.90;;;;;;5081458;28;20451;-71
2023/09/01 06:53:10;;;;;;;6.47;3.73;;;16.90;99.90;;;;;;5084207;28;20457;-70
2023/09/01 06:55:57;;;;;;;6.90;3.73;;;16.90;99.90;;;;;;5082330;28;20429;-70
2023/09/01 06:58:43;;;;;;;5.70;3.63;;;16.90;99.90;;;;;;5083978;28;21213;-70
2023/09/01 07:01:29;;;;;;;3.90;3.20;;;17.00;99.90;;;;;;5080450;28;20437;-70
2023/09/01 07:04:15;;;;;;;4.80;3.87;;;16.90;99.90;;;;;;5084706;28;20408;-70
2023/09/01 07:07:00;;;;;;;11.40;4.30;;;16.90;99.90;;;;;;5086031;28;20460;-70
2023/09/01 07:09:46;;;;;;;6.53;3.53;;;16.90;99.90;;;;;;5081899;28;20446;-70
2023/09/01 07:12:33;;;;;;;4.93;3.40;;;16.90;99.90;;;;;;5081504;28;20992;-70
2023/09/01 07:15:19;;;;;;;6.60;4.00;;;17.00;99.90;;;;;;5077089;28;20446;-70
2023/09/01 07:18:05;;;;;;;12.17;3.93;;;17.00;99.90;;;;;;5077735;28;21006;-70
2023/09/01 07:20:51;;;;;;;8.20;4.07;;;16.90;99.90;;;;;;5082039;28;20565;-70
2023/09/01 07:23:37;;;;;;;6.50;4.47;;;17.00;99.90;;;;;;5083409;28;22485;-70
2023/09/01 07:26:23;;;;;;;5.23;3.17;;;16.90;99.90;;;;;;5082454;28;20883;-70
2023/09/01 07:29:10;;;;;;;7.03;3.77;;;17.00;99.90;;;;;;5085650;28;20920;-70
2023/09/01 07:31:55;;;;;;;11.43;4.13;;;17.00;99.90;;;;;;5079105;28;21278;-70
2023/09/01 07:34:41;;;;;;;5.03;3.80;;;17.00;99.90;;;;;;5082614;28;20937;-70
2023/09/01 07:37:27;;;;;;;4.47;3.50;;;17.10;99.90;;;;;;5082302;28;20442;-70
2023/09/01 07:40:14;;;;;;;4.43;3.90;;;17.10;99.90;;;;;;5082952;28;20532;-70
2023/09/01 07:43:00;;;;;;;4.50;3.70;;;17.20;99.90;;;;;;5077507;28;20525;-70
2023/09/01 07:45:47;;;;;;;7.23;3.97;;;17.20;99.90;;;;;;5081463;28;20479;-70
2023/09/01 07:48:33;;;;;;;5.10;3.40;;;17.30;99.90;;;;;;5080868;28;20464;-70
2023/09/01 07:51:18;;;;;;;6.50;3.20;;;17.30;99.90;;;;;;5079384;28;20438;-70
2023/09/01 07:54:04;;;;;;;5.97;3.40;;;17.30;99.90;;;;;;5079580;28;20438;-70
2023/09/01 07:56:50;;;;;;;6.40;3.30;;;17.40;99.90;;;;;;5080448;28;20413;-70
2023/09/01 07:59:36;;;;;;;6.87;3.87;;;17.60;99.90;;;;;;5085699;28;20416;-70
2023/09/01 08:02:23;;;;;;;7.80;3.60;;;17.70;99.90;;;;;;5079537;28;20436;-70
2023/09/01 08:05:09;;;;;;;5.20;3.47;;;17.70;99.90;;;;;;5073991;28;20448;-70
2023/09/01 08:07:54;;;;;;;5.30;3.60;;;17.90;99.90;;;;;;5076799;28;20469;-70
2023/09/01 08:10:41;;;;;;;4.23;3.30;;;17.90;99.90;;;;;;5079997;28;20989;-70
2023/09/01 08:13:27;;;;;;;4.40;3.10;;;18.00;99.90;;;;;;5083071;28;20509;-70
2023/09/01 08:16:13;;;;;;;7.17;3.30;;;18.00;99.90;;;;;;5079719;28;20558;-70
2023/09/01 08:19:02;;;;;;;6.50;3.70;;;18.10;99.90;;;;;;5082482;28;20451;-70
2023/09/01 08:21:47;;;;;;;5.57;3.27;;;18.10;99.90;;;;;;5078117;28;20534;-70
2023/09/01 08:24:33;;;;;;;9.80;4.07;;;18.10;99.90;;;;;;5081646;28;20496;-70
2023/09/01 08:27:18;;;;;;;4.40;3.60;;;18.20;99.90;;;;;;5080744;28;20524;-70
2023/09/01 08:30:06;;;;;;;6.40;3.43;;;18.20;99.90;;;;;;5081070;28;20467;-70
2023/09/01 08:32:52;;;;;;;4.63;3.47;;;18.20;99.90;;;;;;5082920;28;20475;-71
2023/09/01 08:35:39;;;;;;;5.20;3.00;;;18.20;99.90;;;;;;5081140;28;20471;-70
2023/09/01 08:38:25;;;;;;;8.57;3.43;;;18.30;99.90;;;;;;5083918;28;20491;-71
2023/09/01 08:41:10;;;;;;;5.60;3.50;;;18.40;99.90;;;;;;5077737;28;20845;-71
2023/09/01 08:44:02;;;;;;;7.23;3.80;;;18.50;99.90;;;;;;5077887;28;21059;-70
2023/09/01 08:46:49;;;;;;;5.47;3.50;;;18.50;99.90;;;;;;5075836;28;20450;-71
2023/09/01 08:49:36;;;;;;;6.83;3.50;;;18.60;99.90;;;;;;5077264;28;20435;-70
2023/09/01 08:52:23;;;;;;;8.73;3.63;;;18.60;99.90;;;;;;5077706;28;20553;-70
2023/09/01 08:55:10;;;;;;;10.57;3.70;;;18.60;99.90;;;;;;5079240;28;20421;-70
2023/09/01 08:57:56;;;;;;;5.83;3.77;;;18.60;99.90;;;;;;5078083;28;20579;-70
2023/09/01 09:00:42;;;;;;;11.30;5.47;;;18.60;99.90;;;;;;5073560;28;20470;-70
2023/09/01 09:03:29;;;;;;;6.67;3.10;;;18.70;99.90;;;;;;5079663;28;20439;-70
2023/09/01 09:06:16;;;;;;;6.20;3.20;;;18.70;99.90;;;;;;5077353;28;20468;-70
2023/09/01 09:09:11;;;;;;;7.50;4.20;;;18.80;99.90;;;;;;5074872;28;20427;-70
2023/09/01 09:11:58;;;;;;;4.93;2.77;;;18.80;99.90;;;;;;5078564;28;20590;-70
2023/09/01 09:14:49;;;;;;;5.80;3.13;;;18.70;99.90;;;;;;5083022;28;20530;-70
2023/09/01 09:17:44;;;;;;;5.27;2.87;;;18.60;99.90;;;;;;5080542;28;20444;-70
2023/09/01 09:20:37;;;;;;;5.37;3.07;;;18.60;99.90;;;;;;5084455;28;20464;-70
2023/09/01 09:23:40;;;;;;;5.40;3.03;;;18.60;99.90;;;;;;5080614;28;20441;-69
2023/09/01 09:26:28;;;;;;;7.13;3.23;;;18.70;99.90;;;;;;5081571;28;20468;-69
2023/09/01 09:29:15;;;;;;;9.33;3.20;;;18.80;99.90;;;;;;5078777;28;20837;-69
2023/09/01 09:32:00;;;;;;;4.83;2.50;;;18.80;99.90;;;;;;5083118;28;20445;-69
2023/09/01 09:35:06;;;;;;;4.73;2.60;;;18.70;99.90;;;;;;5086139;28;20438;-69
2023/09/01 09:37:58;;;;;;;9.77;3.50;;;18.60;99.90;;;;;;5084708;28;20877;-69
2023/09/01 09:40:56;;;;;;;6.53;2.90;;;18.70;99.90;;;;;;5085125;28;20479;-71
2023/09/01 09:43:48;;;;;;;4.73;2.90;;;18.60;99.90;;;;;;5078593;28;20430;-72
2023/09/01 09:46:44;;;;;;;6.17;3.30;;;18.60;99.90;;;;;;5079514;28;20474;-72
2023/09/01 09:49:32;;;;;;;7.10;3.20;;;18.70;99.90;;;;;;5082082;28;20450;-72
2023/09/01 09:52:19;;;;;;;7.70;3.40;;;18.80;99.90;;;;;;5082938;28;20484;-72
2023/09/01 09:55:08;;;;;;;6.13;2.97;;;18.80;99.90;;;;;;5080710;28;20502;-72
2023/09/01 09:58:03;;;;;;;4.80;3.20;;;18.80;99.90;;;;;;5084957;28;20445;-72
2023/09/01 10:00:55;;;;;;;4.70;3.27;;;18.90;99.90;;;;;;5082439;28;20486;-72
2023/09/01 10:03:41;;;;;;;5.43;2.87;;;19.00;99.90;;;;;;5076898;28;20519;-71
2023/09/01 10:06:27;;;;;;;6.37;3.23;;;19.00;99.90;;;;;;5085841;28;20448;-72
2023/09/01 10:09:16;;;;;;;6.83;3.27;;;19.00;99.90;;;;;;5077713;28;20409;-72
2023/09/01 10:12:02;;;;;;;4.83;2.70;;;19.00;99.90;;;;;;5084065;28;20537;-72
2023/09/01 10:14:50;;;;;;;3.90;2.83;;;19.00;99.90;;;;;;5080930;28;20556;-72
2023/09/01 10:17:38;;;;;;;4.33;2.90;;;18.90;99.90;;;;;;5077324;28;20516;-72
2023/09/01 10:20:24;;;;;;;8.57;3.30;;;19.00;99.90;;;;;;5081001;28;20455;-72
2023/09/01 10:23:10;;;;;;;7.17;3.70;;;19.00;99.90;;;;;;5080767;28;20545;-72
2023/09/01 10:26:14;;;;;;;7.20;3.00;;;19.10;99.90;;;;;;5074864;28;20807;-72
2023/09/01 10:29:01;;;;;;;7.60;3.37;;;19.10;99.90;;;;;;5080039;28;22829;-72
2023/09/01 10:31:47;;;;;;;5.27;2.50;;;19.00;99.90;;;;;;5080386;28;20861;-72
2023/09/01 10:34:35;;;;;;;6.90;2.70;;;19.00;99.90;;;;;;5084239;28;20862;-72
2023/09/01 10:37:27;;;;;;;4.03;3.03;;;19.10;99.90;;;;;;5084302;28;20408;-72
2023/09/01 10:40:40;;;;;;;5.20;2.70;;;19.10;99.90;;;;;;5080321;28;20449;-72
2023/09/01 10:43:54;;;;;;;6.50;2.60;;;19.00;99.90;;;;;;5084094;28;20428;-72
2023/09/01 10:46:39;;;;;;;4.93;2.60;;;19.00;99.90;;;;;;5083049;28;20980;-72
2023/09/01 10:52:34;;;;;;;4.40;2.80;;;18.90;99.90;;;;;;5062508;28;21002;-71
2023/09/01 10:55:20;;;;;;;3.63;2.50;;;18.80;99.90;;;;;;5059212;28;20458;-71
2023/09/01 10:58:09;;;;;;;8.53;2.10;;;18.80;99.90;;;;;;5071498;28;20829;-71
2023/09/01 11:00:57;;;;;;;4.40;2.10;;;18.70;99.90;;;;;;5059788;28;20495;-71
2023/09/01 11:03:44;;;;;;;4.00;2.70;;;18.70;99.90;;;;;;5062433;28;20440;-71
2023/09/01 11:07:08;;;;;;;6.33;3.37;;;18.70;99.90;;;;;;5059268;28;20434;-71
2023/09/01 11:09:58;;;;;;;3.47;3.10;;;18.60;99.90;;;;;;5062532;28;20944;-71
2023/09/01 11:12:44;;;;;;;5.57;2.70;;;18.60;99.90;;;;;;5043440;22;20617;-75
2023/09/01 11:15:29;;;;;;;4.77;2.37;;;18.60;99.90;;;;;;5021378;28;20983;-76
2023/09/01 11:18:19;;;;;;;7.10;3.03;;;18.60;99.90;;;;;;5024499;28;20424;-77
2023/09/01 11:21:09;;;;;;;3.90;2.40;;;18.70;99.90;;;;;;5026317;28;20533;-76
2023/09/01 11:23:58;;;;;;;8.80;2.60;;;18.70;99.90;;;;;;5006002;28;20425;-77
2023/09/01 11:26:45;;;;;;;4.07;2.60;;;18.80;99.90;;;;;;5002788;28;21261;-76
2023/09/01 11:29:32;;;;;;;3.17;2.87;;;18.80;99.90;;;;;;5012363;28;20563;-76
2023/09/01 11:32:26;;;;;;;5.43;2.40;;;18.70;99.90;;;;;;5006743;28;21076;-76
2023/09/01 11:35:26;;;;;;;3.23;2.70;;;18.70;99.90;;;;;;5004072;28;20434;-76
2023/09/01 11:38:18;;;;;;;9.40;2.57;;;18.70;99.90;;;;;;5010667;28;20978;-76
2023/09/01 11:41:06;;;;;;;9.13;2.20;;;18.80;99.90;;;;;;5011670;28;20487;-76
2023/09/01 11:43:55;;;;;;;3.83;2.03;;;18.70;99.90;;;;;;5000590;28;20835;-76
2023/09/01 11:46:41;;;;;;;3.13;1.90;;;18.70;99.90;;;;;;5003960;28;20942;-76
2023/09/01 11:49:27;;;;;;;3.60;2.20;;;18.70;99.90;;;;;;5010943;28;20970;-77
2023/09/01 11:52:13;;;;;;;4.60;2.53;;;18.80;99.90;;;;;;5004706;28;20465;-77
2023/09/01 11:54:58;;;;;;;3.53;2.47;;;18.90;99.90;;;;;;5009065;28;20525;-75
2023/09/01 11:57:53;;;;;;;4.90;2.40;;;18.90;99.90;;;;;;5012995;28;20633;-76
2023/09/01 12:00:40;;;;;;;3.53;2.20;;;19.10;99.90;;;;;;5013700;28;20444;-74
2023/09/01 12:03:26;;;;;;;4.00;2.90;;;19.30;99.90;;;;;;5001070;28;20575;-76
2023/09/01 12:06:16;;;;;;;4.20;3.10;;;19.50;99.90;;;;;;4995007;28;20425;-76
2023/09/01 12:09:11;;;;;;;6.67;4.53;;;19.70;99.90;;;;;;4997756;28;20487;-74
2023/09/01 12:12:00;;;;;;;3.43;2.20;;;19.80;99.90;;;;;;4992488;28;21180;-74
2023/09/01 12:14:45;;;;;;;4.13;2.13;;;19.80;99.90;;;;;;4992924;28;21019;-72
2023/09/01 12:17:34;;;;;;;2.83;2.10;;;19.90;99.90;;;;;;4997160;28;20481;-75
2023/09/01 12:20:20;;;;;;;3.10;1.90;;;19.80;99.90;;;;;;4993991;28;20472;-75
2023/09/01 12:23:06;;;;;;;3.50;1.90;;;19.80;99.90;;;;;;5001520;28;20422;-75
2023/09/01 12:25:51;;;;;;;8.53;2.23;;;19.80;99.90;;;;;;4993896;28;20432;-75
2023/09/01 12:28:38;;;;;;;2.93;1.80;;;19.90;99.90;;;;;;4998168;28;21072;-75
2023/09/01 12:31:24;;;;;;;3.70;2.37;;;19.80;99.90;;;;;;4996398;28;20591;-74
2023/09/01 12:34:11;;;;;;;4.20;1.70;;;19.90;99.90;;;;;;4987992;28;20773;-75
2023/09/01 12:36:57;;;;;;;3.00;1.80;;;19.80;99.90;;;;;;4988830;28;20433;-75
2023/09/01 12:39:42;;;;;;;3.40;1.80;;;19.70;99.90;;;;;;4990305;28;20428;-75
2023/09/01 12:42:28;;;;;;;5.50;2.10;;;19.60;99.90;;;;;;4995508;28;20594;-73
2023/09/01 12:45:14;;;;;;;3.30;1.70;;;19.60;99.90;;;;;;5000722;28;20422;-74
2023/09/01 12:48:01;;;;;;;3.57;2.30;;;19.70;99.90;;;;;;4993676;28;20847;-75
2023/09/01 12:50:49;;;;;;;3.33;2.10;;;19.70;99.90;;;;;;4994230;28;20510;-73
2023/09/01 12:53:34;;;;;;;4.00;2.03;;;19.70;99.90;;;;;;4992188;28;20488;-75
2023/09/01 12:56:20;;;;;;;2.87;1.73;;;19.70;99.90;;;;;;4992653;28;20554;-75
2023/09/01 12:59:06;;;;;;;5.43;1.80;;;19.70;99.90;;;;;;4989122;28;20478;-72
2023/09/01 13:01:51;;;;;;;3.70;1.70;;;19.60;99.90;;;;;;4995614;28;20465;-74
2023/09/01 13:04:39;;;;;;;3.60;1.60;;;19.50;99.90;;;;;;5000261;28;20424;-74
2023/09/01 13:07:26;;;;;;;7.63;1.40;;;19.60;99.90;;;;;;4999941;28;20454;-74
2023/09/01 13:10:11;;;;;;;2.83;1.47;;;20.00;99.90;;;;;;5000457;28;20791;-74
2023/09/01 13:12:57;;;;;;;3.40;1.90;;;20.40;99.90;;;;;;4990144;28;20478;-75
2023/09/01 13:15:42;;;;;;;4.07;1.50;;;20.80;99.90;;;;;;4990940;28;20423;-75
2023/09/01 13:18:28;;;;;;;3.30;1.80;;;20.90;99.90;;;;;;4987536;28;20416;-75
2023/09/01 13:21:14;;;;;;;3.37;1.53;;;21.00;99.90;;;;;;4997332;28;20549;-74
2023/09/01 13:24:01;;;;;;;3.43;1.40;;;21.00;99.90;;;;;;4991902;28;20567;-74
2023/09/01 13:26:47;;;;;;;3.70;1.53;;;20.80;99.90;;;;;;4992773;28;20418;-73
2023/09/01 13:29:33;;;;;;;2.47;1.50;;;20.70;99.90;;;;;;4995585;28;20434;-74
2023/09/01 13:32:18;;;;;;;2.63;1.30;;;20.60;99.90;;;;;;4991608;28;20477;-75
2023/09/01 13:35:05;;;;;;;5.23;1.10;;;20.50;99.90;;;;;;4996088;28;20430;-74
2023/09/01 13:37:51;;;;;;;3.60;1.50;;;20.50;99.90;;;;;;4998366;28;20988;-74
2023/09/01 13:40:38;;;;;;;2.83;1.63;;;20.40;99.90;;;;;;4992462;28;20933;-75
2023/09/01 13:43:24;;;;;;;3.37;1.60;;;20.30;99.90;;;;;;4997146;28;20445;-75
2023/09/01 13:46:22;;;;;;;2.50;1.30;;;20.30;99.90;;;;;;5000780;28;20419;-75
2023/09/01 13:49:09;;;;;;;7.30;2.00;;;20.30;99.90;;;;;;4992786;28;20461;-75
2023/09/01 13:51:55;;;;;;;5.70;1.50;;;20.20;99.90;;;;;;4991567;28;20553;-75
2023/09/01 13:54:41;;;;;;;7.43;1.37;;;20.20;99.90;;;;;;4999031;28;20427;-75
2023/09/01 13:57:28;;;;;;;3.70;1.63;;;20.20;99.90;;;;;;4998355;28;20552;-73
2023/09/01 14:00:14;;;;;;;4.33;1.13;;;20.10;99.90;;;;;;4996710;28;20984;-75
2023/09/01 14:03:00;;;;;;;2.47;1.30;;;20.10;99.90;;;;;;4992846;28;20439;-75
2023/09/01 14:05:46;;;;;;;2.20;0.97;;;20.10;99.90;;;;;;4992348;28;20442;-75
2023/09/01 14:08:32;;;;;;;2.27;1.20;;;20.00;99.90;;;;;;4992797;28;20451;-75
2023/09/01 14:11:17;;;;;;;2.23;1.13;;;19.90;99.90;;;;;;4988557;28;20477;-75
2023/09/01 14:14:05;;;;;;;1.97;1.07;;;19.90;99.90;;;;;;4995867;28;20452;-75
2023/09/01 14:16:51;;;;;;;2.50;1.10;;;19.80;99.90;;;;;;4991993;28;20630;-73
2023/09/01 14:19:37;;;;;;;2.00;1.17;;;19.80;99.90;;;;;;4997599;28;20450;-75
2023/09/01 14:22:23;;;;;;;2.73;1.03;;;19.80;99.90;;;;;;4993477;28;20442;-73
2023/09/01 14:25:09;;;;;;;4.27;1.27;;;19.80;99.90;;;;;;4999577;28;20452;-75
2023/09/01 14:27:55;;;;;;;13.80;1.60;;;19.80;99.90;;;;;;5001078;28;20440;-75
2023/09/01 14:30:42;;;;;;;8.37;1.70;;;19.70;99.90;;;;;;4987205;28;20496;-75
2023/09/01 14:33:27;;;;;;;4.90;1.20;;;19.70;99.90;;;;;;4991477;28;20492;-75